sensor_id;sensor_type;location;lat;lon;timestamp;pressure;altitude;pressure_sealevel;temperature;humidity
34235;BME280;20500;49.856;20.290;2022-12-08T00:01:18;98436.59;;;1.59;78.65
34235;BME280;20500;49.856;20.290;2022-12-08T00:04:24;98438.84;;;1.56;78.74
34235;BME280;20500;49.856;20.290;2022-12-08T00:07:30;98439.89;;;1.52;78.67
34235;BME280;20500;49.856;20.290;2022-12-08T00:10:53;98438.05;;;1.49;78.63
34235;BME280;20500;49.856;20.290;2022-12-08T00:13:59;98439.14;;;1.44;78.60
34235;BME280;20500;49.856;20.290;2022-12-08T00:17:06;98438.58;;;1.40;78.45
34235;BME280;20500;49.856;20.290;2022-12-08T00:20:13;98435.30;;;1.37;78.68
34235;BME280;20500;49.856;20.290;2022-12-08T00:23:19;98441.03;;;1.35;78.63
34235;BME280;20500;49.856;20.290;2022-12-08T00:26:25;98445.53;;;1.36;79.03
34235;BME280;20500;49.856;20.290;2022-12-08T00:29:30;98447.69;;;1.37;78.73
34235;BME280;20500;49.856;20.290;2022-12-08T00:32:37;98454.23;;;1.32;78.77
34235;BME280;20500;49.856;20.290;2022-12-08T00:35:41;98457.14;;;1.25;78.63
34235;BME280;20500;49.856;20.290;2022-12-08T00:38:46;98463.31;;;1.16;78.55
34235;BME280;20500;49.856;20.290;2022-12-08T00:41:52;98463.81;;;1.11;78.62
34235;BME280;20500;49.856;20.290;2022-12-08T00:45:17;98461.97;;;1.09;78.74
34235;BME280;20500;49.856;20.290;2022-12-08T00:48:22;98463.70;;;1.08;78.62
34235;BME280;20500;49.856;20.290;2022-12-08T00:51:29;98462.22;;;1.05;78.62
34235;BME280;20500;49.856;20.290;2022-12-08T00:54:34;98466.30;;;1.01;78.68
34235;BME280;20500;49.856;20.290;2022-12-08T00:57:40;98468.52;;;0.98;78.70
34235;BME280;20500;49.856;20.290;2022-12-08T01:00:46;98470.29;;;0.94;78.66
34235;BME280;20500;49.856;20.290;2022-12-08T01:03:52;98468.82;;;0.93;78.52
34235;BME280;20500;49.856;20.290;2022-12-08T01:06:57;98468.92;;;0.91;78.46
34235;BME280;20500;49.856;20.290;2022-12-08T01:10:04;98471.27;;;0.91;78.49
34235;BME280;20500;49.856;20.290;2022-12-08T01:13:10;98473.38;;;0.91;78.46
34235;BME280;20500;49.856;20.290;2022-12-08T01:16:21;98478.00;;;0.91;78.50
34235;BME280;20500;49.856;20.290;2022-12-08T01:19:27;98481.71;;;0.92;78.44
34235;BME280;20500;49.856;20.290;2022-12-08T01:22:35;98477.28;;;0.94;78.51
34235;BME280;20500;49.856;20.290;2022-12-08T01:25:40;98479.20;;;0.96;78.58
34235;BME280;20500;49.856;20.290;2022-12-08T01:28:47;98481.48;;;0.99;78.65
34235;BME280;20500;49.856;20.290;2022-12-08T01:31:52;98480.02;;;1.00;78.56
34235;BME280;20500;49.856;20.290;2022-12-08T01:34:58;98479.66;;;0.99;78.57
34235;BME280;20500;49.856;20.290;2022-12-08T01:38:04;98478.70;;;0.98;78.52
34235;BME280;20500;49.856;20.290;2022-12-08T01:41:14;98473.89;;;0.96;78.73
34235;BME280;20500;49.856;20.290;2022-12-08T01:44:53;98473.40;;;0.95;78.68
34235;BME280;20500;49.856;20.290;2022-12-08T01:48:01;98469.83;;;0.95;78.72
34235;BME280;20500;49.856;20.290;2022-12-08T01:51:08;98470.30;;;0.98;78.73
34235;BME280;20500;49.856;20.290;2022-12-08T01:54:14;98464.24;;;1.02;78.68
34235;BME280;20500;49.856;20.290;2022-12-08T01:57:25;98461.88;;;1.06;78.77
34235;BME280;20500;49.856;20.290;2022-12-08T02:00:32;98458.58;;;1.11;78.73
34235;BME280;20500;49.856;20.290;2022-12-08T02:03:41;98459.73;;;1.16;78.67
34235;BME280;20500;49.856;20.290;2022-12-08T02:06:48;98459.37;;;1.20;78.62
34235;BME280;20500;49.856;20.290;2022-12-08T02:09:52;98463.86;;;1.22;78.56
34235;BME280;20500;49.856;20.290;2022-12-08T02:12:59;98466.78;;;1.24;78.60
34235;BME280;20500;49.856;20.290;2022-12-08T02:16:11;98467.94;;;1.25;78.70
34235;BME280;20500;49.856;20.290;2022-12-08T02:19:55;98476.55;;;1.26;78.64
34235;BME280;20500;49.856;20.290;2022-12-08T02:23:16;98475.31;;;1.28;78.75
34235;BME280;20500;49.856;20.290;2022-12-08T02:26:38;98469.49;;;1.27;78.57
34235;BME280;20500;49.856;20.290;2022-12-08T02:30:07;98470.73;;;1.25;78.63
34235;BME280;20500;49.856;20.290;2022-12-08T02:33:43;98472.77;;;1.27;78.54
34235;BME280;20500;49.856;20.290;2022-12-08T02:37:01;98475.91;;;1.27;78.48
34235;BME280;20500;49.856;20.290;2022-12-08T02:40:18;98478.23;;;1.27;78.44
34235;BME280;20500;49.856;20.290;2022-12-08T02:43:28;98482.45;;;1.28;78.63
34235;BME280;20500;49.856;20.290;2022-12-08T02:46:41;98485.49;;;1.26;78.38
34235;BME280;20500;49.856;20.290;2022-12-08T02:49:48;98486.55;;;1.22;78.55
34235;BME280;20500;49.856;20.290;2022-12-08T02:52:53;98488.38;;;1.18;78.48
34235;BME280;20500;49.856;20.290;2022-12-08T02:56:06;98486.16;;;1.14;78.60
34235;BME280;20500;49.856;20.290;2022-12-08T02:59:26;98488.45;;;1.13;78.58
34235;BME280;20500;49.856;20.290;2022-12-08T03:02:43;98488.85;;;1.13;78.65
34235;BME280;20500;49.856;20.290;2022-12-08T03:05:59;98484.86;;;1.11;78.60
34235;BME280;20500;49.856;20.290;2022-12-08T03:09:16;98487.23;;;1.10;78.55
34235;BME280;20500;49.856;20.290;2022-12-08T03:12:27;98487.40;;;1.11;78.59
34235;BME280;20500;49.856;20.290;2022-12-08T03:15:35;98481.91;;;1.12;78.75
34235;BME280;20500;49.856;20.290;2022-12-08T03:18:46;98482.79;;;1.14;78.76
34235;BME280;20500;49.856;20.290;2022-12-08T03:21:55;98481.92;;;1.16;78.80
34235;BME280;20500;49.856;20.290;2022-12-08T03:25:08;98484.82;;;1.17;78.82
34235;BME280;20500;49.856;20.290;2022-12-08T03:28:14;98481.05;;;1.20;78.87
34235;BME280;20500;49.856;20.290;2022-12-08T03:31:21;98474.05;;;1.22;78.73
34235;BME280;20500;49.856;20.290;2022-12-08T03:34:30;98473.53;;;1.26;78.81
34235;BME280;20500;49.856;20.290;2022-12-08T03:37:37;98471.36;;;1.28;78.75
34235;BME280;20500;49.856;20.290;2022-12-08T03:40:44;98467.10;;;1.32;78.80
34235;BME280;20500;49.856;20.290;2022-12-08T03:44:11;98472.16;;;1.35;78.67
34235;BME280;20500;49.856;20.290;2022-12-08T03:47:17;98473.73;;;1.37;78.65
34235;BME280;20500;49.856;20.290;2022-12-08T03:50:22;98472.88;;;1.39;78.75
34235;BME280;20500;49.856;20.290;2022-12-08T03:53:28;98468.16;;;1.38;78.53
34235;BME280;20500;49.856;20.290;2022-12-08T03:56:36;98471.55;;;1.38;78.56
34235;BME280;20500;49.856;20.290;2022-12-08T03:59:42;98472.29;;;1.39;78.73
34235;BME280;20500;49.856;20.290;2022-12-08T04:02:48;98474.00;;;1.40;78.68
34235;BME280;20500;49.856;20.290;2022-12-08T04:05:53;98475.81;;;1.40;78.61
34235;BME280;20500;49.856;20.290;2022-12-08T04:08:59;98471.38;;;1.38;78.67
34235;BME280;20500;49.856;20.290;2022-12-08T04:12:05;98470.19;;;1.33;78.58
34235;BME280;20500;49.856;20.290;2022-12-08T04:15:10;98471.56;;;1.28;78.66
34235;BME280;20500;49.856;20.290;2022-12-08T04:18:16;98472.66;;;1.24;78.63
34235;BME280;20500;49.856;20.290;2022-12-08T04:21:22;98469.63;;;1.19;78.63
34235;BME280;20500;49.856;20.290;2022-12-08T04:24:28;98473.25;;;1.17;78.69
34235;BME280;20500;49.856;20.290;2022-12-08T04:27:33;98471.08;;;1.15;78.53
34235;BME280;20500;49.856;20.290;2022-12-08T04:30:39;98467.23;;;1.14;78.67
34235;BME280;20500;49.856;20.290;2022-12-08T04:33:45;98466.23;;;1.13;78.66
34235;BME280;20500;49.856;20.290;2022-12-08T04:36:52;98465.80;;;1.12;78.63
34235;BME280;20500;49.856;20.290;2022-12-08T04:39:57;98462.89;;;1.13;78.69
34235;BME280;20500;49.856;20.290;2022-12-08T04:43:03;98461.47;;;1.15;78.71
34235;BME280;20500;49.856;20.290;2022-12-08T04:46:09;98461.52;;;1.16;78.74
34235;BME280;20500;49.856;20.290;2022-12-08T04:49:15;98459.00;;;1.16;78.72
34235;BME280;20500;49.856;20.290;2022-12-08T04:52:21;98459.85;;;1.17;78.69
34235;BME280;20500;49.856;20.290;2022-12-08T04:55:27;98458.98;;;1.19;78.73
34235;BME280;20500;49.856;20.290;2022-12-08T04:58:32;98463.19;;;1.19;78.67
34235;BME280;20500;49.856;20.290;2022-12-08T05:01:38;98466.48;;;1.20;78.62
34235;BME280;20500;49.856;20.290;2022-12-08T05:04:44;98468.06;;;1.21;78.72
34235;BME280;20500;49.856;20.290;2022-12-08T05:07:50;98466.94;;;1.21;78.72
34235;BME280;20500;49.856;20.290;2022-12-08T05:11:02;98467.09;;;1.24;78.78
34235;BME280;20500;49.856;20.290;2022-12-08T05:14:09;98467.55;;;1.27;78.61
34235;BME280;20500;49.856;20.290;2022-12-08T05:17:16;98468.02;;;1.31;78.60
34235;BME280;20500;49.856;20.290;2022-12-08T05:20:22;98464.23;;;1.36;78.70
34235;BME280;20500;49.856;20.290;2022-12-08T05:23:28;98467.48;;;1.39;78.55
34235;BME280;20500;49.856;20.290;2022-12-08T05:26:32;98458.99;;;1.42;78.68
34235;BME280;20500;49.856;20.290;2022-12-08T05:29:38;98461.20;;;1.43;78.75
34235;BME280;20500;49.856;20.290;2022-12-08T05:32:44;98456.02;;;1.45;78.62
34235;BME280;20500;49.856;20.290;2022-12-08T05:35:49;98459.56;;;1.46;78.85
34235;BME280;20500;49.856;20.290;2022-12-08T05:38:56;98456.16;;;1.48;78.77
34235;BME280;20500;49.856;20.290;2022-12-08T05:42:03;98458.34;;;1.47;78.75
34235;BME280;20500;49.856;20.290;2022-12-08T05:45:11;98457.58;;;1.48;78.87
34235;BME280;20500;49.856;20.290;2022-12-08T05:48:17;98461.95;;;1.49;78.79
34235;BME280;20500;49.856;20.290;2022-12-08T05:51:23;98456.09;;;1.51;78.70
34235;BME280;20500;49.856;20.290;2022-12-08T05:54:29;98457.85;;;1.53;78.62
34235;BME280;20500;49.856;20.290;2022-12-08T05:57:35;98461.95;;;1.53;78.66
34235;BME280;20500;49.856;20.290;2022-12-08T06:00:40;98463.92;;;1.55;78.75
34235;BME280;20500;49.856;20.290;2022-12-08T06:03:47;98465.58;;;1.56;78.55
34235;BME280;20500;49.856;20.290;2022-12-08T06:06:52;98473.94;;;1.55;78.40
34235;BME280;20500;49.856;20.290;2022-12-08T06:09:59;98474.28;;;1.51;78.50
34235;BME280;20500;49.856;20.290;2022-12-08T06:13:05;98477.32;;;1.45;78.53
34235;BME280;20500;49.856;20.290;2022-12-08T06:16:10;98481.91;;;1.40;78.55
34235;BME280;20500;49.856;20.290;2022-12-08T06:19:17;98487.33;;;1.37;78.51
34235;BME280;20500;49.856;20.290;2022-12-08T06:22:21;98492.66;;;1.36;78.51
34235;BME280;20500;49.856;20.290;2022-12-08T06:25:27;98492.75;;;1.35;78.62
34235;BME280;20500;49.856;20.290;2022-12-08T06:28:33;98491.44;;;1.33;78.66
34235;BME280;20500;49.856;20.290;2022-12-08T06:31:39;98496.70;;;1.35;78.57
34235;BME280;20500;49.856;20.290;2022-12-08T06:34:45;98499.77;;;1.38;78.55
34235;BME280;20500;49.856;20.290;2022-12-08T06:37:50;98501.70;;;1.44;78.47
34235;BME280;20500;49.856;20.290;2022-12-08T06:40:56;98502.02;;;1.51;78.58
34235;BME280;20500;49.856;20.290;2022-12-08T06:44:01;98498.80;;;1.55;78.67
34235;BME280;20500;49.856;20.290;2022-12-08T06:47:06;98499.63;;;1.59;78.52
34235;BME280;20500;49.856;20.290;2022-12-08T06:50:13;98498.56;;;1.63;78.51
34235;BME280;20500;49.856;20.290;2022-12-08T06:53:19;98505.13;;;1.67;78.53
34235;BME280;20500;49.856;20.290;2022-12-08T06:56:24;98505.20;;;1.71;78.53
34235;BME280;20500;49.856;20.290;2022-12-08T06:59:31;98500.41;;;1.74;78.56
34235;BME280;20500;49.856;20.290;2022-12-08T07:02:37;98503.16;;;1.80;78.54
34235;BME280;20500;49.856;20.290;2022-12-08T07:05:43;98504.14;;;1.84;78.53
34235;BME280;20500;49.856;20.290;2022-12-08T07:08:49;98502.81;;;1.89;78.47
34235;BME280;20500;49.856;20.290;2022-12-08T07:11:54;98501.83;;;1.94;78.48
34235;BME280;20500;49.856;20.290;2022-12-08T07:15:00;98504.79;;;1.99;78.54
34235;BME280;20500;49.856;20.290;2022-12-08T07:18:06;98508.86;;;2.01;78.50
34235;BME280;20500;49.856;20.290;2022-12-08T07:21:12;98509.73;;;2.06;78.55
34235;BME280;20500;49.856;20.290;2022-12-08T07:24:19;98506.70;;;2.09;78.45
34235;BME280;20500;49.856;20.290;2022-12-08T07:27:25;98509.42;;;2.12;78.39
34235;BME280;20500;49.856;20.290;2022-12-08T07:30:30;98514.56;;;2.16;78.43
34235;BME280;20500;49.856;20.290;2022-12-08T07:33:36;98516.71;;;2.23;78.44
34235;BME280;20500;49.856;20.290;2022-12-08T07:36:41;98514.16;;;2.29;78.49
34235;BME280;20500;49.856;20.290;2022-12-08T07:39:48;98514.81;;;2.37;78.50
34235;BME280;20500;49.856;20.290;2022-12-08T07:42:53;98512.61;;;2.44;78.41
34235;BME280;20500;49.856;20.290;2022-12-08T07:45:59;98511.99;;;2.52;78.44
34235;BME280;20500;49.856;20.290;2022-12-08T07:49:05;98510.63;;;2.59;78.38
34235;BME280;20500;49.856;20.290;2022-12-08T07:52:10;98506.30;;;2.65;78.25
34235;BME280;20500;49.856;20.290;2022-12-08T07:55:16;98512.02;;;2.71;78.22
34235;BME280;20500;49.856;20.290;2022-12-08T07:58:22;98513.61;;;2.75;78.21
34235;BME280;20500;49.856;20.290;2022-12-08T08:01:31;98509.91;;;2.79;78.05
34235;BME280;20500;49.856;20.290;2022-12-08T08:04:37;98510.32;;;2.84;78.01
34235;BME280;20500;49.856;20.290;2022-12-08T08:07:43;98512.38;;;2.89;77.86
34235;BME280;20500;49.856;20.290;2022-12-08T08:10:51;98513.98;;;2.93;77.90
34235;BME280;20500;49.856;20.290;2022-12-08T08:13:57;98513.39;;;2.97;77.88
34235;BME280;20500;49.856;20.290;2022-12-08T08:17:03;98513.33;;;3.02;77.88
34235;BME280;20500;49.856;20.290;2022-12-08T08:20:11;98514.21;;;3.06;77.68
34235;BME280;20500;49.856;20.290;2022-12-08T08:23:16;98517.95;;;3.09;77.64
34235;BME280;20500;49.856;20.290;2022-12-08T08:26:22;98515.41;;;3.13;77.65
34235;BME280;20500;49.856;20.290;2022-12-08T08:29:28;98522.27;;;3.16;77.57
34235;BME280;20500;49.856;20.290;2022-12-08T08:32:34;98520.45;;;3.21;77.53
34235;BME280;20500;49.856;20.290;2022-12-08T08:35:40;98517.35;;;3.25;77.51
34235;BME280;20500;49.856;20.290;2022-12-08T08:38:47;98517.99;;;3.29;77.45
34235;BME280;20500;49.856;20.290;2022-12-08T08:41:53;98519.32;;;3.34;77.41
34235;BME280;20500;49.856;20.290;2022-12-08T08:44:58;98519.19;;;3.39;77.21
34235;BME280;20500;49.856;20.290;2022-12-08T08:48:04;98520.66;;;3.44;77.30
34235;BME280;20500;49.856;20.290;2022-12-08T08:51:11;98520.17;;;3.49;77.27
34235;BME280;20500;49.856;20.290;2022-12-08T08:54:17;98518.94;;;3.53;77.06
34235;BME280;20500;49.856;20.290;2022-12-08T08:57:23;98515.97;;;3.55;77.06
34235;BME280;20500;49.856;20.290;2022-12-08T09:00:28;98517.08;;;3.58;77.04
34235;BME280;20500;49.856;20.290;2022-12-08T09:03:34;98514.06;;;3.62;76.88
34235;BME280;20500;49.856;20.290;2022-12-08T09:06:39;98512.85;;;3.65;76.91
34235;BME280;20500;49.856;20.290;2022-12-08T09:09:46;98510.58;;;3.70;76.89
34235;BME280;20500;49.856;20.290;2022-12-08T09:12:52;98509.70;;;3.73;76.66
34235;BME280;20500;49.856;20.290;2022-12-08T09:15:58;98506.17;;;3.76;76.64
34235;BME280;20500;49.856;20.290;2022-12-08T09:19:04;98504.81;;;3.78;76.57
34235;BME280;20500;49.856;20.290;2022-12-08T09:22:10;98504.27;;;3.78;76.43
34235;BME280;20500;49.856;20.290;2022-12-08T09:25:16;98501.80;;;3.77;76.42
34235;BME280;20500;49.856;20.290;2022-12-08T09:28:21;98497.61;;;3.78;76.28
34235;BME280;20500;49.856;20.290;2022-12-08T09:31:27;98495.23;;;3.80;76.19
34235;BME280;20500;49.856;20.290;2022-12-08T09:34:33;98492.48;;;3.82;76.31
34235;BME280;20500;49.856;20.290;2022-12-08T09:37:39;98489.67;;;3.85;76.12
34235;BME280;20500;49.856;20.290;2022-12-08T09:40:49;98487.70;;;3.87;75.98
34235;BME280;20500;49.856;20.290;2022-12-08T09:44:03;98486.00;;;3.89;75.98
34235;BME280;20500;49.856;20.290;2022-12-08T09:47:18;98485.82;;;3.91;75.73
34235;BME280;20500;49.856;20.290;2022-12-08T09:50:31;98480.51;;;3.92;75.77
34235;BME280;20500;49.856;20.290;2022-12-08T09:53:41;98476.57;;;3.90;75.65
34235;BME280;20500;49.856;20.290;2022-12-08T09:56:49;98474.38;;;3.91;75.49
34235;BME280;20500;49.856;20.290;2022-12-08T09:59:58;98468.92;;;3.91;75.43
34235;BME280;20500;49.856;20.290;2022-12-08T10:03:08;98466.79;;;3.93;75.40
34235;BME280;20500;49.856;20.290;2022-12-08T10:06:23;98468.39;;;3.95;75.28
34235;BME280;20500;49.856;20.290;2022-12-08T10:09:43;98467.55;;;3.95;75.18
34235;BME280;20500;49.856;20.290;2022-12-08T10:12:57;98463.77;;;3.95;75.05
34235;BME280;20500;49.856;20.290;2022-12-08T10:16:14;98459.91;;;3.92;75.08
34235;BME280;20500;49.856;20.290;2022-12-08T10:19:34;98453.20;;;3.90;75.05
34235;BME280;20500;49.856;20.290;2022-12-08T10:22:40;98444.73;;;3.91;75.07
34235;BME280;20500;49.856;20.290;2022-12-08T10:25:49;98449.75;;;3.93;75.03
34235;BME280;20500;49.856;20.290;2022-12-08T10:28:56;98449.03;;;3.95;75.02
34235;BME280;20500;49.856;20.290;2022-12-08T10:32:18;98447.39;;;3.97;74.96
34235;BME280;20500;49.856;20.290;2022-12-08T10:35:25;98446.80;;;3.99;74.81
34235;BME280;20500;49.856;20.290;2022-12-08T10:38:46;98445.18;;;4.01;74.81
34235;BME280;20500;49.856;20.290;2022-12-08T10:41:52;98445.58;;;4.04;74.90
34235;BME280;20500;49.856;20.290;2022-12-08T10:45:08;98441.85;;;4.07;74.91
34235;BME280;20500;49.856;20.290;2022-12-08T10:48:20;98435.45;;;4.10;74.86
34235;BME280;20500;49.856;20.290;2022-12-08T10:51:34;98435.35;;;4.14;74.94
34235;BME280;20500;49.856;20.290;2022-12-08T10:54:42;98435.91;;;4.18;74.81
34235;BME280;20500;49.856;20.290;2022-12-08T10:57:48;98433.59;;;4.21;74.74
34235;BME280;20500;49.856;20.290;2022-12-08T11:00:56;98430.19;;;4.26;74.57
34235;BME280;20500;49.856;20.290;2022-12-08T11:04:05;98430.23;;;4.31;74.49
34235;BME280;20500;49.856;20.290;2022-12-08T11:07:21;98430.52;;;4.37;74.57
34235;BME280;20500;49.856;20.290;2022-12-08T11:10:43;98422.66;;;4.42;74.45
34235;BME280;20500;49.856;20.290;2022-12-08T11:13:51;98423.86;;;4.48;74.44
34235;BME280;20500;49.856;20.290;2022-12-08T11:17:04;98423.11;;;4.53;74.48
34235;BME280;20500;49.856;20.290;2022-12-08T11:20:21;98418.11;;;4.56;74.34
34235;BME280;20500;49.856;20.290;2022-12-08T11:23:28;98417.34;;;4.60;74.26
34235;BME280;20500;49.856;20.290;2022-12-08T11:26:35;98414.38;;;4.62;74.16
34235;BME280;20500;49.856;20.290;2022-12-08T11:29:42;98412.04;;;4.66;74.23
34235;BME280;20500;49.856;20.290;2022-12-08T11:32:49;98409.41;;;4.72;74.33
34235;BME280;20500;49.856;20.290;2022-12-08T11:36:01;98411.51;;;4.78;74.40
34235;BME280;20500;49.856;20.290;2022-12-08T11:39:11;98413.94;;;4.80;74.19
34235;BME280;20500;49.856;20.290;2022-12-08T11:42:21;98409.65;;;4.82;74.17
34235;BME280;20500;49.856;20.290;2022-12-08T11:45:31;98407.45;;;4.80;73.89
34235;BME280;20500;49.856;20.290;2022-12-08T11:48:41;98402.45;;;4.78;73.78
34235;BME280;20500;49.856;20.290;2022-12-08T11:51:55;98402.80;;;4.77;73.77
34235;BME280;20500;49.856;20.290;2022-12-08T11:55:12;98401.96;;;4.75;73.69
34235;BME280;20500;49.856;20.290;2022-12-08T11:58:23;98398.71;;;4.71;73.55
34235;BME280;20500;49.856;20.290;2022-12-08T12:01:31;98404.67;;;4.70;73.45
34235;BME280;20500;49.856;20.290;2022-12-08T12:04:48;98402.02;;;4.69;73.58
34235;BME280;20500;49.856;20.290;2022-12-08T12:08:07;98402.63;;;4.69;73.35
34235;BME280;20500;49.856;20.290;2022-12-08T12:11:23;98399.45;;;4.70;73.55
34235;BME280;20500;49.856;20.290;2022-12-08T12:15:15;98401.91;;;4.72;73.43
34235;BME280;20500;49.856;20.290;2022-12-08T12:18:27;98401.88;;;4.72;73.28
34235;BME280;20500;49.856;20.290;2022-12-08T12:21:39;98400.33;;;4.72;73.17
34235;BME280;20500;49.856;20.290;2022-12-08T12:24:48;98395.95;;;4.71;73.35
34235;BME280;20500;49.856;20.290;2022-12-08T12:27:58;98395.83;;;4.70;73.15
34235;BME280;20500;49.856;20.290;2022-12-08T12:31:07;98397.43;;;4.70;73.22
34235;BME280;20500;49.856;20.290;2022-12-08T12:34:17;98405.15;;;4.70;73.20
34235;BME280;20500;49.856;20.290;2022-12-08T12:37:26;98402.80;;;4.70;73.12
34235;BME280;20500;49.856;20.290;2022-12-08T12:40:41;98393.00;;;4.68;73.04
34235;BME280;20500;49.856;20.290;2022-12-08T12:47:45;98388.27;;;4.63;72.87
34235;BME280;20500;49.856;20.290;2022-12-08T12:50:59;98380.88;;;4.65;73.15
34235;BME280;20500;49.856;20.290;2022-12-08T12:54:26;98380.86;;;4.69;73.32
34235;BME280;20500;49.856;20.290;2022-12-08T12:57:36;98377.00;;;4.70;73.27
34235;BME280;20500;49.856;20.290;2022-12-08T13:00:42;98378.27;;;4.66;72.84
34235;BME280;20500;49.856;20.290;2022-12-08T13:03:50;98372.48;;;4.64;73.07
34235;BME280;20500;49.856;20.290;2022-12-08T13:07:07;98363.25;;;4.62;73.02
34235;BME280;20500;49.856;20.290;2022-12-08T13:10:18;98362.22;;;4.56;72.90
34235;BME280;20500;49.856;20.290;2022-12-08T13:13:24;98367.34;;;4.57;73.00
34235;BME280;20500;49.856;20.290;2022-12-08T13:16:32;98368.73;;;4.58;72.91
34235;BME280;20500;49.856;20.290;2022-12-08T13:19:40;98364.99;;;4.57;72.78
34235;BME280;20500;49.856;20.290;2022-12-08T13:23:23;98364.44;;;4.56;72.92
34235;BME280;20500;49.856;20.290;2022-12-08T13:26:30;98360.87;;;4.54;72.74
34235;BME280;20500;49.856;20.290;2022-12-08T13:29:36;98360.00;;;4.50;72.70
34235;BME280;20500;49.856;20.290;2022-12-08T13:32:57;98362.43;;;4.46;72.61
34235;BME280;20500;49.856;20.290;2022-12-08T13:36:26;98361.64;;;4.43;72.61
34235;BME280;20500;49.856;20.290;2022-12-08T13:39:42;98359.39;;;4.37;72.48
34235;BME280;20500;49.856;20.290;2022-12-08T13:42:58;98353.77;;;4.30;72.55
34235;BME280;20500;49.856;20.290;2022-12-08T13:46:10;98350.81;;;4.26;72.44
34235;BME280;20500;49.856;20.290;2022-12-08T13:49:41;98349.77;;;4.24;72.63
34235;BME280;20500;49.856;20.290;2022-12-08T13:53:13;98352.52;;;4.24;72.48
34235;BME280;20500;49.856;20.290;2022-12-08T13:56:42;98354.81;;;4.22;72.60
34235;BME280;20500;49.856;20.290;2022-12-08T14:00:17;98353.40;;;4.22;72.77
34235;BME280;20500;49.856;20.290;2022-12-08T14:03:23;98356.23;;;4.24;72.66
34235;BME280;20500;49.856;20.290;2022-12-08T14:06:33;98350.57;;;4.25;72.66
34235;BME280;20500;49.856;20.290;2022-12-08T14:09:40;98352.11;;;4.24;72.52
34235;BME280;20500;49.856;20.290;2022-12-08T14:12:51;98357.71;;;4.21;72.53
34235;BME280;20500;49.856;20.290;2022-12-08T14:15:59;98357.38;;;4.17;72.58
34235;BME280;20500;49.856;20.290;2022-12-08T14:19:13;98357.55;;;4.10;72.43
34235;BME280;20500;49.856;20.290;2022-12-08T14:22:20;98360.70;;;4.05;72.43
34235;BME280;20500;49.856;20.290;2022-12-08T14:25:26;98363.56;;;4.04;72.50
34235;BME280;20500;49.856;20.290;2022-12-08T14:28:33;98361.61;;;4.02;72.54
34235;BME280;20500;49.856;20.290;2022-12-08T14:31:47;98360.77;;;4.01;72.65
34235;BME280;20500;49.856;20.290;2022-12-08T14:34:56;98362.09;;;4.01;72.74
34235;BME280;20500;49.856;20.290;2022-12-08T14:38:03;98363.30;;;4.00;72.74
34235;BME280;20500;49.856;20.290;2022-12-08T14:41:12;98361.02;;;3.97;72.52
34235;BME280;20500;49.856;20.290;2022-12-08T14:44:23;98357.81;;;3.95;72.47
34235;BME280;20500;49.856;20.290;2022-12-08T14:47:32;98359.63;;;3.93;72.57
34235;BME280;20500;49.856;20.290;2022-12-08T14:50:40;98364.73;;;3.92;72.55
34235;BME280;20500;49.856;20.290;2022-12-08T14:53:53;98360.73;;;3.89;72.35
34235;BME280;20500;49.856;20.290;2022-12-08T14:57:02;98360.48;;;3.86;72.42
34235;BME280;20500;49.856;20.290;2022-12-08T15:00:17;98359.13;;;3.84;72.66
34235;BME280;20500;49.856;20.290;2022-12-08T15:03:24;98362.61;;;3.80;72.75
34235;BME280;20500;49.856;20.290;2022-12-08T15:06:31;98360.05;;;3.75;72.75
34235;BME280;20500;49.856;20.290;2022-12-08T15:09:38;98355.60;;;3.69;72.78
34235;BME280;20500;49.856;20.290;2022-12-08T15:13:05;98349.35;;;3.62;72.81
34235;BME280;20500;49.856;20.290;2022-12-08T15:16:25;98340.80;;;3.56;72.75
34235;BME280;20500;49.856;20.290;2022-12-08T15:19:32;98336.07;;;3.55;72.66
34235;BME280;20500;49.856;20.290;2022-12-08T15:22:39;98335.72;;;3.55;72.83
34235;BME280;20500;49.856;20.290;2022-12-08T15:25:44;98336.09;;;3.55;72.78
34235;BME280;20500;49.856;20.290;2022-12-08T15:28:51;98340.02;;;3.53;72.86
34235;BME280;20500;49.856;20.290;2022-12-08T15:31:59;98337.45;;;3.52;72.83
34235;BME280;20500;49.856;20.290;2022-12-08T15:35:11;98340.67;;;3.50;72.92
34235;BME280;20500;49.856;20.290;2022-12-08T15:38:21;98341.41;;;3.47;73.04
34235;BME280;20500;49.856;20.290;2022-12-08T15:41:27;98342.86;;;3.45;73.03
34235;BME280;20500;49.856;20.290;2022-12-08T15:44:33;98339.31;;;3.40;72.97
34235;BME280;20500;49.856;20.290;2022-12-08T15:47:39;98336.09;;;3.33;72.85
34235;BME280;20500;49.856;20.290;2022-12-08T15:50:45;98336.91;;;3.24;72.78
34235;BME280;20500;49.856;20.290;2022-12-08T15:53:52;98337.64;;;3.20;72.85
34235;BME280;20500;49.856;20.290;2022-12-08T15:56:58;98327.00;;;3.17;72.75
34235;BME280;20500;49.856;20.290;2022-12-08T16:00:30;98332.72;;;3.12;72.77
34235;BME280;20500;49.856;20.290;2022-12-08T16:03:57;98337.45;;;3.14;72.90
34235;BME280;20500;49.856;20.290;2022-12-08T16:07:25;98342.66;;;3.18;73.19
34235;BME280;20500;49.856;20.290;2022-12-08T16:10:31;98338.14;;;3.15;73.07
34235;BME280;20500;49.856;20.290;2022-12-08T16:13:57;98335.81;;;3.04;72.97
34235;BME280;20500;49.856;20.290;2022-12-08T16:17:23;98335.67;;;2.98;72.96
34235;BME280;20500;49.856;20.290;2022-12-08T16:20:29;98334.63;;;2.94;72.86
34235;BME280;20500;49.856;20.290;2022-12-08T16:23:55;98332.09;;;2.89;72.85
34235;BME280;20500;49.856;20.290;2022-12-08T16:27:01;98331.38;;;2.87;72.80
34235;BME280;20500;49.856;20.290;2022-12-08T16:30:27;98332.76;;;2.89;72.98
34235;BME280;20500;49.856;20.290;2022-12-08T16:33:32;98342.53;;;2.90;73.17
34235;BME280;20500;49.856;20.290;2022-12-08T16:36:38;98341.11;;;2.90;73.18
34235;BME280;20500;49.856;20.290;2022-12-08T16:39:44;98339.70;;;2.86;73.25
34235;BME280;20500;49.856;20.290;2022-12-08T16:42:53;98334.52;;;2.84;73.18
34235;BME280;20500;49.856;20.290;2022-12-08T16:45:59;98332.29;;;2.85;73.27
34235;BME280;20500;49.856;20.290;2022-12-08T16:49:05;98334.30;;;2.87;73.25